createdAt,value
2018-06-05T00:02:08.997Z,17.10
2018-06-05T00:04:39.750Z,18.37
2018-06-05T00:07:10.486Z,20.00
2018-06-05T00:09:41.191Z,19.17
2018-06-05T00:12:11.877Z,16.00
2018-06-05T00:14:43.184Z,18.10
2018-06-05T00:17:13.708Z,22.03
2018-06-05T00:19:44.322Z,23.33
2018-06-05T00:22:15.164Z,20.37
2018-06-05T00:24:45.863Z,19.10
2018-06-05T00:27:16.383Z,20.13
2018-06-05T00:29:47.070Z,20.47
2018-06-05T00:32:17.607Z,16.00
2018-06-05T00:34:48.411Z,14.30
2018-06-05T00:37:19.254Z,20.23
2018-06-05T00:39:49.915Z,21.80
2018-06-05T00:42:20.498Z,21.90
2018-06-05T00:44:51.177Z,19.90
2018-06-05T00:47:21.989Z,22.13
2018-06-05T00:49:52.784Z,23.00
2018-06-05T00:52:23.362Z,19.83
2018-06-05T00:54:54.356Z,20.97
2018-06-05T00:57:24.863Z,22.50
2018-06-05T00:59:55.847Z,21.43
2018-06-05T01:02:26.309Z,20.80
2018-06-05T01:04:56.827Z,20.27
2018-06-05T01:07:27.643Z,23.97
2018-06-05T01:09:58.716Z,16.10
2018-06-05T01:12:29.272Z,23.97
2018-06-05T01:15:00.123Z,13.97
2018-06-05T01:17:30.592Z,16.60
2018-06-05T01:20:02.594Z,21.47
2018-06-05T01:22:33.456Z,21.13
2018-06-05T01:25:04.942Z,22.07
2018-06-05T01:27:35.472Z,18.30
2018-06-05T01:30:06.368Z,19.27
2018-06-05T01:32:37.882Z,22.27
2018-06-05T01:35:09.028Z,17.10
2018-06-05T01:37:39.536Z,20.90
2018-06-05T01:40:10.102Z,18.37
2018-06-05T01:42:40.851Z,16.40
2018-06-05T01:45:11.853Z,18.07
2018-06-05T01:47:42.548Z,18.97
2018-06-05T01:50:13.572Z,23.37
2018-06-05T01:52:44.203Z,21.67
2018-06-05T01:55:14.940Z,20.20
2018-06-05T01:57:45.423Z,21.83
2018-06-05T02:00:16.176Z,21.13
2018-06-05T02:02:47.087Z,17.57
2018-06-05T02:05:17.879Z,18.63
2018-06-05T02:07:48.449Z,23.87
2018-06-05T02:10:19.716Z,17.80
2018-06-05T02:12:50.382Z,18.63
2018-06-05T02:15:20.984Z,24.43
2018-06-05T02:17:52.126Z,21.97
2018-06-05T02:20:22.815Z,17.60
2018-06-05T02:22:53.471Z,19.77
2018-06-05T02:25:23.997Z,15.70
2018-06-05T02:27:54.551Z,21.97
2018-06-05T02:30:25.235Z,18.77
2018-06-05T02:32:56.701Z,18.50
2018-06-05T02:35:27.227Z,20.17
2018-06-05T02:37:57.743Z,17.27
2018-06-05T02:40:28.981Z,27.83
2018-06-05T02:42:59.531Z,18.50
2018-06-05T02:45:30.048Z,21.53
2018-06-05T02:48:00.894Z,18.73
2018-06-05T02:50:31.643Z,16.57
2018-06-05T02:53:02.137Z,24.70
2018-06-05T02:55:32.943Z,21.93
2018-06-05T02:58:03.438Z,21.00
2018-06-05T03:00:34.125Z,21.93
2018-06-05T03:03:05.111Z,21.30
2018-06-05T03:05:35.751Z,16.03
2018-06-05T03:08:06.267Z,22.07
2018-06-05T03:10:37.823Z,22.77
2018-06-05T03:13:08.279Z,16.67
2018-06-05T03:15:38.923Z,22.07
2018-06-05T03:18:09.771Z,19.77
2018-06-05T03:20:40.235Z,20.17
2018-06-05T03:23:10.367Z,17.40
2018-06-05T03:25:41.167Z,19.60
2018-06-05T03:28:11.774Z,17.17
2018-06-05T03:30:42.211Z,29.63
2018-06-05T03:33:13.152Z,19.33
2018-06-05T03:35:43.655Z,19.17
2018-06-05T03:38:14.132Z,20.40
2018-06-05T03:40:44.737Z,22.83
2018-06-05T03:43:15.304Z,18.80
2018-06-05T03:45:46.498Z,19.83
2018-06-05T03:48:17.383Z,19.50
2018-06-05T03:50:48.212Z,21.23
2018-06-05T03:53:18.947Z,22.00
2018-06-05T03:55:49.567Z,19.80
2018-06-05T03:58:20.051Z,19.97
2018-06-05T04:00:50.642Z,20.17
2018-06-05T04:03:21.599Z,23.27
2018-06-05T04:05:52.204Z,19.53
2018-06-05T04:08:22.711Z,19.17
2018-06-05T04:10:53.663Z,21.70
2018-06-05T04:13:24.186Z,21.90
2018-06-05T04:15:55.419Z,21.30
2018-06-05T04:18:25.894Z,24.70
2018-06-05T04:20:56.376Z,22.17
2018-06-05T04:23:26.938Z,21.63
2018-06-05T04:25:57.288Z,23.40
2018-06-05T04:28:27.749Z,27.83
2018-06-05T04:30:58.906Z,23.87
2018-06-05T04:33:29.363Z,23.30
2018-06-05T04:36:00.126Z,25.47
2018-06-05T04:38:30.594Z,25.27
2018-06-05T04:41:01.496Z,21.80
2018-06-05T04:43:32.827Z,21.93
2018-06-05T04:46:03.275Z,26.53
2018-06-05T04:48:33.759Z,24.27
2018-06-05T04:51:04.871Z,21.70
2018-06-05T04:53:35.438Z,27.33
2018-06-05T04:56:05.959Z,23.93
2018-06-05T04:58:36.766Z,24.70
2018-06-05T05:01:07.726Z,23.20
2018-06-05T05:03:38.187Z,23.57
2018-06-05T05:06:09.291Z,21.93
2018-06-05T05:08:39.787Z,23.30
2018-06-05T05:11:10.295Z,21.37
2018-06-05T05:13:40.887Z,22.43
2018-06-05T05:16:11.799Z,23.57
2018-06-05T05:18:42.395Z,23.83
2018-06-05T05:21:12.987Z,23.10
2018-06-05T05:23:43.795Z,21.87
2018-06-05T05:26:14.443Z,19.00
2018-06-05T05:28:47.771Z,22.60
2018-06-05T05:31:19.171Z,21.70
2018-06-05T05:33:49.959Z,21.03
2018-06-05T05:36:20.583Z,19.43
2018-06-05T05:38:51.079Z,17.77
2018-06-05T05:41:22.699Z,25.50
2018-06-05T05:43:53.270Z,18.93
2018-06-05T05:46:23.823Z,23.87
2018-06-05T05:48:54.882Z,20.67
2018-06-05T05:51:25.443Z,20.27
2018-06-05T05:53:55.939Z,20.03
2018-06-05T05:56:26.843Z,16.87
2018-06-05T05:58:57.367Z,15.47
2018-06-05T06:01:28.196Z,16.07
2018-06-05T06:03:59.402Z,20.70
2018-06-05T06:06:30.029Z,13.93
2018-06-05T06:09:00.934Z,19.97
2018-06-05T06:11:32.220Z,13.60
2018-06-05T06:14:02.707Z,17.40
2018-06-05T06:16:33.423Z,15.60
2018-06-05T06:19:03.936Z,17.83
2018-06-05T06:21:34.743Z,16.83
2018-06-05T06:24:05.298Z,16.17
2018-06-05T06:26:36.614Z,15.00
2018-06-05T06:29:07.441Z,18.23
2018-06-05T06:31:37.934Z,15.43
2018-06-05T06:34:08.434Z,16.93
2018-06-05T06:36:39.255Z,17.97
2018-06-05T06:39:10.855Z,21.47
2018-06-05T06:41:58.877Z,14.27
2018-06-05T06:44:33.108Z,13.60
2018-06-05T06:47:05.511Z,13.27
2018-06-05T06:49:36.210Z,16.63
2018-06-05T06:52:08.100Z,13.47
2018-06-05T06:54:48.568Z,13.00
2018-06-05T06:57:53.863Z,15.60
2018-06-05T07:00:39.310Z,16.27
2018-06-05T07:03:09.792Z,15.53
2018-06-05T07:05:40.254Z,16.77
2018-06-05T07:08:11.227Z,19.17
2018-06-05T07:10:41.713Z,20.20
2018-06-05T07:13:12.798Z,15.07
2018-06-05T07:15:46.309Z,10.67
2018-06-05T07:18:16.778Z,14.03
2018-06-05T07:20:47.259Z,16.87
2018-06-05T07:23:18.135Z,15.50
2018-06-05T07:25:48.636Z,13.23
2018-06-05T07:28:20.944Z,13.03
2018-06-05T07:30:51.413Z,14.83
2018-06-05T07:33:22.190Z,14.40
2018-06-05T07:35:53.153Z,10.47
2018-06-05T07:38:24.003Z,13.87
2018-06-05T07:40:54.514Z,14.47
2018-06-05T07:43:27.083Z,17.73
2018-06-05T07:46:07.808Z,17.23
2018-06-05T07:48:38.483Z,13.87
2018-06-05T07:51:09.087Z,14.80
2018-06-05T07:53:40.468Z,15.53
2018-06-05T07:56:11.560Z,14.80
2018-06-05T07:58:42.351Z,16.63
2018-06-05T08:01:14.596Z,18.30
2018-06-05T08:03:45.231Z,13.13
2018-06-05T08:06:15.703Z,14.83
2018-06-05T08:08:46.211Z,13.03
2018-06-05T08:11:16.710Z,13.37
2018-06-05T08:13:47.563Z,14.13
2018-06-05T08:16:18.019Z,18.63
2018-06-05T08:18:48.926Z,15.53
2018-06-05T08:21:19.847Z,15.17
2018-06-05T08:23:50.226Z,15.67
2018-06-05T08:26:20.630Z,23.13
2018-06-05T08:28:51.443Z,18.47
2018-06-05T08:31:21.888Z,11.67
2018-06-05T08:33:52.778Z,15.60
2018-06-05T08:36:23.527Z,16.47
2018-06-05T08:38:54.123Z,13.60
2018-06-05T08:41:24.594Z,13.90
2018-06-05T08:43:55.358Z,15.97
2018-06-05T08:46:26.133Z,16.00
2018-06-05T08:48:57.129Z,15.93
2018-06-05T08:51:27.878Z,11.73
2018-06-05T08:53:58.754Z,16.53
2018-06-05T08:56:29.262Z,17.33
2018-06-05T08:58:59.721Z,17.27
2018-06-05T09:01:30.247Z,20.13
2018-06-05T09:04:01.291Z,19.37
2018-06-05T09:06:31.804Z,23.27
2018-06-05T09:09:02.682Z,16.53
2018-06-05T09:11:33.167Z,15.37
2018-06-05T09:14:03.679Z,20.73
2018-06-05T09:16:34.150Z,18.30
2018-06-05T09:19:05.043Z,17.13
2018-06-05T09:21:35.807Z,13.43
2018-06-05T09:24:06.767Z,18.20
2018-06-05T09:26:37.315Z,17.50
2018-06-05T09:29:08.177Z,16.57
2018-06-05T09:31:38.643Z,15.87
2018-06-05T09:34:09.216Z,14.10
2018-06-05T09:36:39.967Z,22.57
2018-06-05T09:39:10.995Z,17.10
2018-06-05T09:41:41.470Z,17.10
2018-06-05T09:44:11.931Z,14.03
2018-06-05T09:46:42.503Z,18.73
2018-06-05T09:49:13.183Z,18.30
2018-06-05T09:51:43.690Z,16.77
2018-06-05T09:54:14.478Z,13.60
2018-06-05T09:56:45.186Z,19.57
2018-06-05T09:59:15.867Z,12.00
2018-06-05T10:01:46.350Z,11.60
2018-06-05T10:04:17.134Z,17.43
2018-06-05T10:06:47.875Z,12.23
2018-06-05T10:09:18.771Z,12.07
2018-06-05T10:11:49.239Z,12.20
2018-06-05T10:14:20.123Z,15.93
2018-06-05T10:16:50.588Z,16.37
2018-06-05T10:19:21.067Z,16.10
2018-06-05T10:21:51.799Z,13.03
2018-06-05T10:24:22.270Z,18.50
2018-06-05T10:26:52.710Z,19.07
2018-06-05T10:29:23.436Z,10.40
2018-06-05T10:31:53.896Z,17.23
2018-06-05T10:34:24.451Z,12.20
2018-06-05T10:36:54.895Z,15.30
2018-06-05T10:39:25.935Z,14.30
2018-06-05T10:41:56.414Z,11.40
2018-06-05T10:44:27.422Z,11.03
2018-06-05T10:46:57.939Z,14.83
2018-06-05T10:49:28.521Z,14.53
2018-06-05T10:52:02.193Z,13.47
2018-06-05T10:54:33.047Z,13.93
2018-06-05T10:57:03.548Z,13.23
2018-06-05T10:59:34.038Z,13.40
2018-06-05T11:02:04.579Z,13.33
2018-06-05T11:04:35.394Z,12.03
2018-06-05T11:07:05.972Z,13.23
2018-06-05T11:09:36.909Z,12.30
2018-06-05T11:12:07.405Z,13.40
2018-06-05T11:14:38.302Z,9.97
2018-06-05T11:17:09.164Z,11.80
2018-06-05T11:19:40.000Z,13.23
2018-06-05T11:22:10.952Z,11.23
2018-06-05T11:24:41.443Z,12.33
2018-06-05T11:27:11.919Z,10.47
2018-06-05T11:29:43.083Z,11.20
2018-06-05T11:32:13.707Z,11.60
2018-06-05T11:34:44.372Z,12.63
2018-06-05T11:37:15.100Z,10.70
2018-06-05T11:39:45.585Z,11.07
2018-06-05T11:42:16.179Z,11.83
2018-06-05T11:44:46.686Z,11.57
2018-06-05T11:47:17.167Z,12.13
2018-06-05T11:49:47.979Z,16.07
2018-06-05T11:52:18.495Z,13.90
2018-06-05T11:54:48.995Z,11.07
2018-06-05T11:57:19.581Z,9.80
2018-06-05T11:59:50.444Z,9.60
2018-06-05T12:02:20.917Z,12.97
2018-06-05T12:04:52.055Z,13.43
2018-06-05T12:07:22.911Z,10.80
2018-06-05T12:09:53.570Z,12.10
2018-06-05T12:12:24.085Z,8.63
2018-06-05T12:14:54.791Z,10.93
2018-06-05T12:17:25.315Z,8.90
2018-06-05T12:19:55.767Z,10.87
2018-06-05T12:22:26.222Z,11.17
2018-06-05T12:24:56.990Z,11.50
2018-06-05T12:27:27.751Z,8.60
2018-06-05T12:29:58.212Z,9.40
2018-06-05T12:32:28.782Z,12.47
2018-06-05T12:34:59.906Z,9.43
2018-06-05T12:37:30.363Z,12.87
2018-06-05T12:40:00.807Z,9.33
2018-06-05T12:42:31.739Z,9.37
2018-06-05T12:45:02.447Z,10.20
2018-06-05T12:47:32.873Z,8.77
2018-06-05T12:50:04.280Z,11.47
2018-06-05T12:52:34.766Z,10.10
2018-06-05T12:55:05.239Z,9.50
2018-06-05T12:57:36.350Z,7.67
2018-06-05T13:00:06.974Z,7.73
2018-06-05T13:02:37.402Z,10.17
2018-06-05T13:05:08.487Z,10.27
2018-06-05T13:07:38.909Z,6.87
2018-06-05T13:10:09.577Z,12.87
2018-06-05T13:12:40.371Z,10.37
2018-06-05T13:15:10.822Z,8.07
2018-06-05T13:17:41.318Z,5.87
2018-06-05T13:20:12.103Z,8.30
2018-06-05T13:22:42.584Z,11.87
2018-06-05T13:25:13.282Z,10.73
2018-06-05T13:27:44.046Z,8.70
2018-06-05T13:30:14.653Z,11.47
2018-06-05T13:32:45.107Z,8.47
2018-06-05T13:35:15.970Z,10.73
2018-06-05T13:37:46.432Z,11.53
2018-06-05T13:40:16.871Z,10.07
2018-06-05T13:42:47.332Z,18.07
2018-06-05T13:45:17.947Z,8.60
2018-06-05T13:47:48.438Z,12.00
2018-06-05T13:50:19.118Z,10.77
2018-06-05T13:52:50.048Z,8.13
2018-06-05T13:55:20.867Z,9.53
2018-06-05T13:57:51.387Z,11.33
2018-06-05T14:00:22.691Z,11.33
2018-06-05T14:02:53.175Z,6.53
2018-06-05T14:05:23.931Z,10.47
2018-06-05T14:07:54.827Z,11.37
2018-06-05T14:10:25.517Z,10.87
2018-06-05T14:12:56.307Z,7.00
2018-06-05T14:15:27.199Z,9.77
2018-06-05T14:17:57.633Z,11.53
2018-06-05T14:20:28.327Z,6.17
2018-06-05T14:22:58.774Z,5.37
2018-06-05T14:25:29.715Z,8.20
2018-06-05T14:28:00.229Z,8.75
2018-06-05T14:30:30.839Z,9.60
2018-06-05T14:33:01.339Z,6.03
2018-06-05T14:35:31.863Z,7.83
2018-06-05T14:38:02.635Z,6.37
2018-06-05T14:40:33.411Z,11.25
2018-06-05T14:43:03.909Z,8.05
2018-06-05T14:45:34.703Z,9.18
2018-06-05T14:48:05.199Z,7.70
2018-06-05T14:50:36.140Z,12.73
2018-06-05T14:53:06.789Z,8.90
2018-06-05T14:55:37.772Z,9.33
2018-06-05T14:58:08.731Z,8.10
2018-06-05T15:00:39.211Z,7.67
2018-06-05T15:03:09.651Z,5.87
2018-06-05T15:05:40.574Z,8.33
2018-06-05T15:08:11.106Z,10.08
2018-06-05T15:10:41.539Z,9.25
2018-06-05T15:13:12.443Z,9.58
2018-06-05T15:15:43.218Z,8.63
2018-06-05T15:18:13.696Z,10.20
2018-06-05T15:20:44.634Z,8.15
2018-06-05T15:23:15.227Z,6.47
2018-06-05T15:25:45.762Z,9.50
2018-06-05T15:28:16.211Z,7.75
2018-06-05T15:30:46.995Z,8.43
2018-06-05T15:33:17.504Z,7.80
2018-06-05T15:35:48.291Z,7.45
2018-06-05T15:38:19.048Z,8.13
2018-06-05T15:40:49.595Z,9.98
2018-06-05T15:43:20.065Z,6.17
2018-06-05T15:45:50.531Z,10.93
2018-06-05T15:48:20.982Z,7.63
2018-06-05T15:50:51.818Z,9.07
2018-06-05T15:53:22.278Z,8.13
2018-06-05T15:55:53.059Z,16.37
2018-06-05T15:58:23.823Z,8.30
2018-06-05T16:00:54.307Z,9.93
2018-06-05T16:03:24.904Z,9.27
2018-06-05T16:05:55.704Z,7.77
2018-06-05T16:08:26.176Z,7.17
2018-06-05T16:10:56.795Z,12.53
2018-06-05T16:13:27.611Z,7.03
2018-06-05T16:15:58.406Z,10.03
2018-06-05T16:18:29.778Z,7.97
2018-06-05T16:21:00.704Z,7.80
2018-06-05T16:23:31.134Z,6.60
2018-06-05T16:26:01.822Z,10.13
2018-06-05T16:28:32.623Z,9.93
2018-06-05T16:31:03.424Z,7.50
2018-06-05T16:33:33.890Z,8.07
2018-06-05T16:36:04.639Z,8.37
2018-06-05T16:38:35.452Z,7.17
2018-06-05T16:41:05.910Z,7.93
2018-06-05T16:43:36.439Z,6.17
2018-06-05T16:46:07.346Z,10.50
2018-06-05T16:48:37.887Z,7.83
2018-06-05T16:51:08.689Z,8.90
2018-06-05T16:53:39.167Z,11.13
2018-06-05T16:56:09.604Z,13.53
2018-06-05T16:58:40.113Z,10.17
2018-06-05T17:01:10.923Z,7.70
2018-06-05T17:03:41.379Z,12.40
2018-06-05T17:06:12.493Z,9.00
2018-06-05T17:08:42.940Z,7.37
2018-06-05T17:11:13.584Z,7.70
2018-06-05T17:13:44.047Z,9.60
2018-06-05T17:16:14.539Z,7.73
2018-06-05T17:18:45.561Z,19.43
2018-06-05T17:21:16.190Z,11.60
2018-06-05T17:23:46.687Z,15.70
2018-06-05T17:26:18.461Z,15.03
2018-06-05T17:28:48.964Z,13.17
2018-06-05T17:31:19.607Z,17.83
2018-06-05T17:33:50.681Z,12.07
2018-06-05T17:36:21.490Z,17.17
2018-06-05T17:38:51.955Z,16.10
2018-06-05T17:41:22.699Z,16.83
2018-06-05T17:43:53.183Z,21.00
2018-06-05T17:46:23.667Z,19.57
2018-06-05T17:48:54.119Z,18.30
2018-06-05T17:51:24.874Z,22.77
2018-06-05T17:53:55.354Z,21.90
2018-06-05T17:56:26.167Z,21.50
2018-06-05T17:58:56.683Z,21.43
2018-06-05T18:01:27.508Z,19.03
2018-06-05T18:03:58.254Z,19.30
2018-06-05T18:06:28.979Z,18.60
2018-06-05T18:08:59.430Z,22.20
2018-06-05T18:11:30.353Z,14.27
2018-06-05T18:14:00.923Z,19.27
2018-06-05T18:16:31.539Z,19.43
2018-06-05T18:19:02.219Z,18.33
2018-06-05T18:21:33.317Z,21.00
2018-06-05T18:24:03.863Z,19.23
2018-06-05T18:26:34.734Z,22.67
2018-06-05T18:29:05.230Z,15.70
2018-06-05T18:31:36.353Z,15.13
2018-06-05T18:34:07.264Z,20.17
2018-06-05T18:36:37.823Z,21.37
2018-06-05T18:39:09.359Z,15.37
2018-06-05T18:41:40.043Z,15.53
2018-06-05T18:44:10.499Z,17.47
2018-06-05T18:46:40.959Z,23.27
2018-06-05T18:49:11.447Z,13.70
2018-06-05T18:51:42.311Z,18.33
2018-06-05T18:54:12.868Z,22.10
2018-06-05T18:56:43.786Z,19.13
2018-06-05T18:59:14.292Z,20.83
2018-06-05T19:01:44.739Z,14.90
2018-06-05T19:04:15.563Z,13.17
2018-06-05T19:06:46.106Z,20.30
2018-06-05T19:09:16.593Z,20.20
2018-06-05T19:11:47.546Z,21.97
2018-06-05T19:14:17.999Z,23.13
2018-06-05T19:16:48.759Z,21.87
2018-06-05T19:19:19.498Z,18.13
2018-06-05T19:21:49.934Z,20.07
2018-06-05T19:24:20.407Z,25.03
2018-06-05T19:26:51.190Z,18.17
2018-06-05T19:29:21.658Z,24.50
2018-06-05T19:31:52.525Z,18.27
2018-06-05T19:34:23.311Z,13.73
2018-06-05T19:36:53.895Z,15.23
2018-06-05T19:39:24.372Z,14.33
2018-06-05T19:41:55.187Z,17.80
2018-06-05T19:44:25.667Z,15.03
2018-06-05T19:46:56.600Z,13.57
2018-06-05T19:49:27.338Z,14.93
2018-06-05T19:51:58.005Z,17.33
2018-06-05T19:54:28.463Z,13.30
2018-06-05T19:56:59.603Z,16.70
2018-06-05T19:59:30.135Z,14.43
2018-06-05T20:02:00.591Z,19.50
2018-06-05T20:04:31.415Z,15.23
2018-06-05T20:07:01.886Z,19.47
2018-06-05T20:09:32.474Z,16.90
2018-06-05T20:12:03.003Z,15.40
2018-06-05T20:14:33.482Z,18.83
2018-06-05T20:17:04.151Z,14.67
2018-06-05T20:19:34.631Z,16.13
2018-06-05T20:22:05.735Z,18.70
2018-06-05T20:24:36.243Z,16.33
2018-06-05T20:27:06.691Z,14.77
2018-06-05T20:29:37.183Z,19.47
2018-06-05T20:32:07.923Z,20.33
2018-06-05T20:34:38.659Z,19.03
2018-06-05T20:37:09.299Z,15.13
2018-06-05T20:39:39.755Z,17.10
2018-06-05T20:42:10.211Z,16.90
2018-06-05T20:44:40.772Z,14.80
2018-06-05T20:47:11.610Z,16.83
2018-06-05T20:49:42.071Z,14.37
2018-06-05T20:52:12.523Z,12.00
2018-06-05T20:54:43.266Z,15.10
2018-06-05T20:57:14.074Z,13.43
2018-06-05T20:59:44.655Z,16.03
2018-06-05T21:02:15.238Z,13.37
2018-06-05T21:04:45.754Z,9.13
2018-06-05T21:07:16.405Z,11.03
2018-06-05T21:09:46.946Z,12.17
2018-06-05T21:12:17.717Z,12.07
2018-06-05T21:14:48.441Z,9.53
2018-06-05T21:17:18.903Z,9.50
2018-06-05T21:19:49.370Z,8.37
2018-06-05T21:22:20.183Z,9.73
2018-06-05T21:24:50.607Z,11.17
2018-06-05T21:27:21.255Z,9.70
2018-06-05T21:29:51.733Z,12.87
2018-06-05T21:32:22.192Z,9.37
2018-06-05T21:34:52.926Z,9.50
2018-06-05T21:37:23.703Z,11.50
2018-06-05T21:39:54.203Z,8.10
2018-06-05T21:42:25.120Z,10.37
2018-06-05T21:44:55.546Z,8.03
2018-06-05T21:47:26.003Z,7.23
2018-06-05T21:49:56.736Z,6.87
2018-06-05T21:52:27.304Z,6.63
2018-06-05T21:54:57.914Z,6.83
2018-06-05T21:57:28.819Z,10.23
2018-06-05T21:59:59.294Z,5.23
2018-06-05T22:02:30.116Z,5.33
2018-06-05T22:05:00.935Z,6.23
2018-06-05T22:07:31.707Z,5.50
2018-06-05T22:10:02.175Z,5.53
2018-06-05T22:12:32.647Z,8.07
2018-06-05T22:15:03.091Z,6.97
2018-06-05T22:17:34.024Z,6.17
2018-06-05T22:20:04.648Z,6.67
2018-06-05T22:22:35.143Z,4.40
2018-06-05T22:25:05.895Z,6.40
2018-06-05T22:27:36.692Z,10.30
2018-06-05T22:30:07.171Z,6.93
2018-06-05T22:32:38.259Z,5.03
2018-06-05T22:35:08.895Z,4.50
2018-06-05T22:37:39.590Z,5.90
2018-06-05T22:40:10.044Z,4.20
2018-06-05T22:42:40.501Z,6.17
2018-06-05T22:45:10.951Z,6.00
2018-06-05T22:47:41.610Z,8.13
2018-06-05T22:50:12.395Z,4.60
2018-06-05T22:52:42.831Z,5.17
2018-06-05T22:55:13.279Z,4.33
2018-06-05T22:57:44.314Z,7.13
2018-06-05T23:00:20.450Z,8.87
2018-06-05T23:02:51.035Z,8.80
2018-06-05T23:05:21.527Z,7.40
2018-06-05T23:07:52.091Z,5.03
2018-06-05T23:10:22.850Z,5.27
2018-06-05T23:12:53.314Z,5.17
2018-06-05T23:15:23.783Z,4.47
2018-06-05T23:17:54.639Z,5.00
2018-06-05T23:20:25.148Z,4.43
2018-06-05T23:22:55.618Z,4.73
2018-06-05T23:25:26.395Z,5.17
2018-06-05T23:27:56.989Z,4.80
2018-06-05T23:30:27.471Z,6.37
2018-06-05T23:32:58.593Z,6.37
2018-06-05T23:35:29.024Z,5.37
2018-06-05T23:37:59.632Z,5.87
2018-06-05T23:40:30.747Z,5.90
2018-06-05T23:43:01.371Z,4.40
2018-06-05T23:45:31.831Z,4.40
2018-06-05T23:48:02.435Z,13.10
2018-06-05T23:50:33.002Z,11.67
2018-06-05T23:53:03.969Z,11.77
2018-06-05T23:55:34.399Z,7.47
2018-06-05T23:58:05.194Z,5.20
